createdAt,value
2023-03-29T00:01:35.441Z,73.67
2023-03-29T00:04:04.638Z,73.60
2023-03-29T00:06:34.676Z,74.03
2023-03-29T00:09:05.276Z,74.83
2023-03-29T00:11:33.162Z,75.55
2023-03-29T00:14:00.859Z,75.51
2023-03-29T00:16:28.608Z,76.11
2023-03-29T00:18:56.361Z,76.17
2023-03-29T00:21:24.017Z,76.61
2023-03-29T00:23:53.070Z,76.54
2023-03-29T00:26:20.952Z,77.46
2023-03-29T00:28:48.628Z,77.41
2023-03-29T00:31:18.149Z,78.22
2023-03-29T00:33:47.445Z,77.49
2023-03-29T00:36:16.008Z,75.99
2023-03-29T00:38:43.736Z,75.97
2023-03-29T00:41:12.762Z,75.58
2023-03-29T00:43:54.362Z,75.38
2023-03-29T00:46:22.208Z,76.74
2023-03-29T00:48:52.243Z,76.67
2023-03-29T00:51:21.900Z,77.29
2023-03-29T00:53:51.734Z,77.12
2023-03-29T00:56:24.970Z,78.15
2023-03-29T00:58:58.426Z,77.02
2023-03-29T01:01:33.898Z,77.52
2023-03-29T01:04:05.827Z,77.48
2023-03-29T01:06:37.462Z,77.64
2023-03-29T01:09:10.258Z,78.57
2023-03-29T01:11:42.964Z,78.04
2023-03-29T01:14:16.864Z,77.92
2023-03-29T01:16:45.875Z,79.35
2023-03-29T01:19:16.954Z,79.18
2023-03-29T01:21:51.520Z,79.28
2023-03-29T01:24:41.934Z,78.68
2023-03-29T01:27:16.783Z,78.50
2023-03-29T01:29:50.044Z,78.70
2023-03-29T01:32:23.192Z,79.56
2023-03-29T01:34:57.611Z,79.73
2023-03-29T01:37:30.212Z,81.62
2023-03-29T01:39:57.877Z,81.27
2023-03-29T01:42:36.579Z,81.71
2023-03-29T01:45:14.766Z,81.44
2023-03-29T01:47:48.797Z,81.21
2023-03-29T01:50:20.717Z,82.35
2023-03-29T01:52:53.623Z,82.59
2023-03-29T01:55:25.112Z,82.91
2023-03-29T01:57:55.554Z,83.64
2023-03-29T02:00:27.736Z,83.84
2023-03-29T02:03:00.283Z,85.09
2023-03-29T02:05:29.356Z,84.91
2023-03-29T02:07:59.383Z,84.75
2023-03-29T02:10:27.895Z,85.02
2023-03-29T02:12:56.320Z,85.38
2023-03-29T02:15:25.648Z,84.88
2023-03-29T02:17:53.453Z,85.36
2023-03-29T02:20:25.136Z,86.31
2023-03-29T02:22:59.506Z,86.22
2023-03-29T02:25:27.226Z,85.30
2023-03-29T02:27:55.881Z,85.32
2023-03-29T02:30:28.590Z,85.16
2023-03-29T02:33:02.007Z,84.54
2023-03-29T02:35:36.348Z,84.91
2023-03-29T02:38:06.864Z,85.11
2023-03-29T02:40:37.566Z,85.12
2023-03-29T02:43:08.656Z,84.26
2023-03-29T02:45:38.952Z,83.93
2023-03-29T02:48:10.961Z,82.89
2023-03-29T02:50:40.549Z,81.95
2023-03-29T02:53:14.060Z,82.27
2023-03-29T02:55:41.722Z,82.63
2023-03-29T02:58:09.425Z,83.27
2023-03-29T03:00:43.064Z,82.93
2023-03-29T03:03:11.915Z,83.71
2023-03-29T03:05:39.851Z,83.29
2023-03-29T03:08:08.531Z,83.10
2023-03-29T03:10:37.321Z,83.25
2023-03-29T03:13:05.176Z,82.65
2023-03-29T03:15:35.572Z,82.30
2023-03-29T03:18:04.863Z,82.86
2023-03-29T03:20:33.263Z,82.00
2023-03-29T03:23:03.263Z,82.67
2023-03-29T03:25:31.634Z,83.79
2023-03-29T03:27:59.432Z,83.10
2023-03-29T03:30:27.146Z,83.48
2023-03-29T03:32:55.658Z,83.49
2023-03-29T03:35:25.023Z,84.35
2023-03-29T03:37:52.764Z,84.69
2023-03-29T03:40:20.890Z,84.05
2023-03-29T03:42:48.510Z,84.26
2023-03-29T03:45:16.542Z,84.52
2023-03-29T03:47:44.301Z,84.70
2023-03-29T03:50:13.640Z,84.58
2023-03-29T03:52:42.653Z,84.42
2023-03-29T03:55:10.670Z,84.50
2023-03-29T03:57:38.365Z,84.80
2023-03-29T04:00:19.128Z,85.10
2023-03-29T04:02:48.217Z,84.88
2023-03-29T04:05:17.203Z,85.15
2023-03-29T04:07:46.291Z,86.01
2023-03-29T04:10:14.019Z,86.21
2023-03-29T04:12:41.719Z,86.82
2023-03-29T04:15:10.460Z,86.73
2023-03-29T04:17:38.777Z,86.13
2023-03-29T04:20:11.502Z,85.67
2023-03-29T04:22:39.385Z,86.85
2023-03-29T04:25:10.292Z,86.05
2023-03-29T04:27:38.125Z,86.51
2023-03-29T04:30:07.248Z,87.06
2023-03-29T04:32:34.932Z,86.38
2023-03-29T04:35:04.727Z,86.16
2023-03-29T04:37:32.470Z,85.47
2023-03-29T04:40:01.226Z,85.48
2023-03-29T04:42:30.250Z,85.61
2023-03-29T04:44:58.493Z,85.92
2023-03-29T04:47:29.900Z,85.54
2023-03-29T04:49:57.935Z,85.56
2023-03-29T04:52:26.370Z,85.92
2023-03-29T04:54:54.047Z,86.22
2023-03-29T04:57:21.719Z,86.03
2023-03-29T04:59:50.739Z,85.89
2023-03-29T05:02:18.652Z,85.63
2023-03-29T05:04:46.377Z,85.86
2023-03-29T05:10:12.887Z,86.53
2023-03-29T05:12:40.629Z,86.13
2023-03-29T05:15:11.069Z,86.12
2023-03-29T05:17:39.327Z,87.92
2023-03-29T05:20:11.104Z,86.51
2023-03-29T05:22:40.153Z,86.76
2023-03-29T05:25:10.667Z,85.80
2023-03-29T05:27:38.150Z,86.65
2023-03-29T05:30:07.079Z,85.79
2023-03-29T05:32:37.974Z,85.36
2023-03-29T05:35:06.673Z,85.25
2023-03-29T05:37:34.643Z,85.52
2023-03-29T05:40:10.070Z,86.33
2023-03-29T05:42:38.634Z,85.62
2023-03-29T05:45:07.492Z,85.73
2023-03-29T05:47:36.858Z,84.79
2023-03-29T05:50:05.008Z,84.50
2023-03-29T05:52:32.627Z,84.22
2023-03-29T05:55:00.579Z,84.04
2023-03-29T05:57:28.305Z,83.65
2023-03-29T05:59:56.478Z,83.27
2023-03-29T06:02:25.663Z,82.46
2023-03-29T06:04:55.213Z,82.36
2023-03-29T06:07:23.352Z,81.44
2023-03-29T06:09:51.003Z,81.64
2023-03-29T06:12:20.119Z,82.05
2023-03-29T06:14:48.090Z,82.11
2023-03-29T06:17:15.862Z,80.26
2023-03-29T06:19:44.276Z,80.80
2023-03-29T06:22:14.896Z,80.28
2023-03-29T06:24:42.782Z,78.89
2023-03-29T06:27:10.417Z,78.16
2023-03-29T06:29:38.091Z,78.83
2023-03-29T06:32:06.295Z,79.10
2023-03-29T06:34:36.069Z,78.73
2023-03-29T06:37:05.871Z,78.44
2023-03-29T06:39:35.654Z,78.55
2023-03-29T06:42:13.030Z,79.00
2023-03-29T06:44:48.310Z,78.91
2023-03-29T06:47:17.183Z,78.15
2023-03-29T06:49:44.921Z,78.65
2023-03-29T06:52:12.589Z,77.85
2023-03-29T06:54:41.719Z,78.20
2023-03-29T06:57:10.322Z,77.01
2023-03-29T06:59:38.096Z,76.50
2023-03-29T07:02:05.881Z,76.15
2023-03-29T07:04:35.151Z,74.92
2023-03-29T07:07:03.485Z,75.52
2023-03-29T07:09:32.182Z,75.46
2023-03-29T07:12:01.538Z,75.48
2023-03-29T07:14:30.042Z,74.17
2023-03-29T07:16:58.501Z,73.11
2023-03-29T07:19:27.348Z,72.48
2023-03-29T07:21:56.388Z,71.87
2023-03-29T07:24:24.033Z,72.06
2023-03-29T07:27:03.297Z,71.49
2023-03-29T07:29:33.776Z,71.59
2023-03-29T07:32:01.419Z,71.07
2023-03-29T07:34:29.918Z,70.67
2023-03-29T07:36:57.667Z,71.12
2023-03-29T07:39:26.502Z,69.39
2023-03-29T07:41:54.170Z,69.91
2023-03-29T07:44:23.316Z,70.11
2023-03-29T07:46:52.363Z,69.63
2023-03-29T07:49:22.120Z,69.52
2023-03-29T07:51:50.263Z,69.47
2023-03-29T07:54:18.192Z,69.07
2023-03-29T07:56:46.088Z,68.31
2023-03-29T07:59:13.999Z,67.74
2023-03-29T08:01:41.926Z,68.29
2023-03-29T08:04:11.095Z,68.48
2023-03-29T08:06:39.344Z,66.84
2023-03-29T08:09:07.025Z,66.49
2023-03-29T08:11:34.675Z,65.59
2023-03-29T08:14:02.510Z,65.74
2023-03-29T08:16:30.255Z,66.27
2023-03-29T08:18:58.029Z,65.42
2023-03-29T08:21:27.401Z,64.79
2023-03-29T08:23:55.071Z,65.39
2023-03-29T08:26:22.708Z,65.08
2023-03-29T08:28:50.524Z,64.87
2023-03-29T08:31:18.265Z,64.40
2023-03-29T08:33:46.333Z,64.46
2023-03-29T08:36:14.034Z,64.51
2023-03-29T08:38:43.238Z,64.60
2023-03-29T08:41:28.230Z,64.85
2023-03-29T08:44:12.365Z,64.68
2023-03-29T08:46:50.187Z,65.98
2023-03-29T08:49:19.894Z,63.20
2023-03-29T08:51:52.863Z,62.39
2023-03-29T08:54:27.065Z,63.03
2023-03-29T08:56:59.417Z,62.60
2023-03-29T08:59:30.342Z,63.08
2023-03-29T09:02:00.109Z,62.70
2023-03-29T09:04:30.438Z,62.14
2023-03-29T09:06:58.584Z,61.97
2023-03-29T09:09:33.453Z,62.39
2023-03-29T09:12:20.825Z,62.68
2023-03-29T09:15:01.613Z,61.86
2023-03-29T09:17:40.805Z,62.47
2023-03-29T09:20:23.777Z,61.75
2023-03-29T09:23:04.737Z,61.57
2023-03-29T09:25:53.453Z,61.68
2023-03-29T09:28:31.043Z,61.38
2023-03-29T09:31:05.034Z,61.84
2023-03-29T09:33:42.744Z,62.67
2023-03-29T09:36:15.573Z,63.55
2023-03-29T09:38:47.083Z,62.37
2023-03-29T09:41:22.439Z,63.27
2023-03-29T09:43:52.388Z,63.31
2023-03-29T09:46:23.991Z,63.11
2023-03-29T09:48:52.588Z,63.16
2023-03-29T09:51:24.161Z,62.79
2023-03-29T09:53:52.004Z,62.01
2023-03-29T09:56:21.432Z,60.39
2023-03-29T09:58:49.124Z,60.35
2023-03-29T10:01:18.825Z,59.43
2023-03-29T10:03:51.410Z,59.05
2023-03-29T10:06:23.239Z,59.03
2023-03-29T10:08:57.627Z,58.11
2023-03-29T10:11:31.829Z,57.73
2023-03-29T10:14:04.293Z,57.43
2023-03-29T10:16:37.406Z,57.86
2023-03-29T10:19:19.157Z,58.91
2023-03-29T10:21:49.842Z,58.56
2023-03-29T10:24:20.990Z,58.14
2023-03-29T10:26:55.253Z,57.24
2023-03-29T10:29:24.899Z,57.45
2023-03-29T10:31:53.315Z,57.53
2023-03-29T10:34:25.802Z,56.37
2023-03-29T10:36:59.384Z,57.05
2023-03-29T10:39:29.926Z,56.76
2023-03-29T10:41:59.645Z,56.49
2023-03-29T10:44:32.875Z,55.87
2023-03-29T10:47:10.228Z,56.24
2023-03-29T10:49:42.069Z,56.38
2023-03-29T10:52:10.194Z,56.64
2023-03-29T10:54:38.266Z,57.11
2023-03-29T10:57:10.363Z,57.38
2023-03-29T10:59:44.889Z,57.06
2023-03-29T11:02:50.278Z,57.27
2023-03-29T11:05:28.767Z,58.10
2023-03-29T11:08:20.662Z,58.37
2023-03-29T11:10:56.722Z,58.05
2023-03-29T11:13:34.006Z,58.12
2023-03-29T11:16:11.130Z,58.69
2023-03-29T11:19:04.755Z,58.77
2023-03-29T11:21:43.113Z,58.74
2023-03-29T11:24:31.161Z,59.42
2023-03-29T11:27:10.379Z,58.92
2023-03-29T11:29:52.741Z,59.84
2023-03-29T11:32:28.993Z,59.44
2023-03-29T11:35:07.724Z,59.15
2023-03-29T11:37:41.963Z,59.13
2023-03-29T11:40:35.961Z,59.62
2023-03-29T11:43:07.035Z,60.00
2023-03-29T11:45:39.858Z,59.78
2023-03-29T11:48:14.011Z,59.18
2023-03-29T11:50:48.558Z,59.00
2023-03-29T11:53:21.261Z,58.29
2023-03-29T11:55:51.636Z,57.79
2023-03-29T11:58:27.760Z,58.05
2023-03-29T12:01:02.718Z,58.62
2023-03-29T12:03:39.971Z,58.92
2023-03-29T12:06:15.814Z,58.50
2023-03-29T12:08:47.048Z,58.74
2023-03-29T12:11:21.370Z,58.75
2023-03-29T12:13:52.522Z,58.67
2023-03-29T12:16:27.442Z,59.77
2023-03-29T12:18:57.238Z,59.80
2023-03-29T12:21:27.907Z,58.74
2023-03-29T12:23:55.422Z,58.85
2023-03-29T12:26:37.974Z,58.03
2023-03-29T12:29:23.435Z,57.36
2023-03-29T12:32:02.572Z,58.29
2023-03-29T12:34:43.549Z,57.72
2023-03-29T12:37:25.515Z,56.38
2023-03-29T12:39:53.608Z,56.72
2023-03-29T12:42:23.192Z,57.16
2023-03-29T12:44:53.287Z,57.32
2023-03-29T12:47:25.626Z,56.41
2023-03-29T12:49:57.280Z,56.40
2023-03-29T12:52:28.645Z,56.54
2023-03-29T12:54:57.409Z,56.37
2023-03-29T12:57:29.706Z,57.06
2023-03-29T12:59:57.341Z,57.23
2023-03-29T13:02:36.971Z,57.82
2023-03-29T13:05:07.426Z,55.95
2023-03-29T13:07:47.703Z,56.18
2023-03-29T13:10:52.877Z,56.80
2023-03-29T13:13:26.110Z,57.45
2023-03-29T13:15:54.153Z,57.28
2023-03-29T13:18:35.506Z,56.20
2023-03-29T13:21:12.365Z,56.52
2023-03-29T13:23:49.819Z,57.15
2023-03-29T13:26:31.464Z,57.16
2023-03-29T13:29:18.718Z,56.80
2023-03-29T13:31:57.299Z,56.91
2023-03-29T13:34:37.826Z,56.87
2023-03-29T13:37:14.687Z,55.54
2023-03-29T13:39:51.140Z,55.76
2023-03-29T13:42:23.571Z,56.45
2023-03-29T13:44:51.642Z,56.01
2023-03-29T13:47:48.948Z,55.47
2023-03-29T13:50:38.126Z,55.49
2023-03-29T13:53:13.695Z,56.07
2023-03-29T13:55:48.233Z,55.34
2023-03-29T13:58:27.348Z,55.42
2023-03-29T14:01:00.278Z,55.17
2023-03-29T14:03:30.558Z,56.15
2023-03-29T14:06:02.044Z,56.29
2023-03-29T14:08:33.989Z,55.94
2023-03-29T14:11:05.843Z,56.15
2023-03-29T14:13:34.591Z,56.36
2023-03-29T14:16:04.951Z,56.18
2023-03-29T14:18:34.854Z,56.73
2023-03-29T14:21:04.976Z,57.38
2023-03-29T14:23:36.394Z,57.74
2023-03-29T14:26:10.524Z,58.29
2023-03-29T14:28:44.513Z,57.52
2023-03-29T14:31:18.682Z,57.40
2023-03-29T14:33:46.912Z,58.07
2023-03-29T14:36:18.591Z,57.91
2023-03-29T14:38:51.053Z,57.76
2023-03-29T14:41:18.726Z,57.68
2023-03-29T14:43:48.115Z,57.49
2023-03-29T14:46:21.667Z,57.73
2023-03-29T14:48:51.555Z,57.92
2023-03-29T14:51:21.129Z,57.63
2023-03-29T14:53:50.593Z,58.09
2023-03-29T14:56:24.012Z,58.27
2023-03-29T14:58:55.357Z,58.12
2023-03-29T15:01:24.868Z,58.54
2023-03-29T15:03:56.155Z,58.38
2023-03-29T15:06:26.320Z,58.87
2023-03-29T15:09:04.195Z,59.01
2023-03-29T15:11:34.878Z,59.32
2023-03-29T15:14:05.638Z,60.48
2023-03-29T15:16:34.025Z,60.69
2023-03-29T15:19:02.939Z,60.36
2023-03-29T15:21:35.291Z,60.74
2023-03-29T15:24:05.196Z,60.46
2023-03-29T15:26:35.044Z,60.94
2023-03-29T15:29:08.028Z,61.50
2023-03-29T15:31:37.803Z,61.53
2023-03-29T15:34:09.076Z,61.73
2023-03-29T15:36:42.006Z,61.71
2023-03-29T15:39:13.280Z,62.14
2023-03-29T15:41:41.094Z,62.65
2023-03-29T15:44:09.320Z,62.91
2023-03-29T15:46:37.049Z,63.64
2023-03-29T15:49:05.002Z,64.21
2023-03-29T15:51:32.864Z,64.38
2023-03-29T15:54:01.846Z,65.22
2023-03-29T15:56:29.916Z,65.65
2023-03-29T15:58:57.650Z,66.16
2023-03-29T16:01:33.512Z,66.07
2023-03-29T16:04:01.578Z,65.66
2023-03-29T16:06:29.239Z,66.28
2023-03-29T16:08:57.523Z,66.82
2023-03-29T16:11:26.978Z,65.71
2023-03-29T16:13:54.665Z,65.41
2023-03-29T16:16:22.535Z,65.33
2023-03-29T16:18:50.516Z,66.03
2023-03-29T16:21:20.737Z,66.70
2023-03-29T16:23:48.602Z,66.42
2023-03-29T16:26:17.789Z,66.77
2023-03-29T16:28:46.794Z,65.94
2023-03-29T16:31:15.050Z,66.11
2023-03-29T16:33:42.831Z,65.78
2023-03-29T16:36:11.934Z,66.25
2023-03-29T16:38:39.738Z,65.86
2023-03-29T16:41:08.542Z,65.69
2023-03-29T16:43:38.541Z,65.74
2023-03-29T16:46:08.747Z,65.78
2023-03-29T16:48:36.570Z,66.23
2023-03-29T16:51:04.389Z,66.04
2023-03-29T16:53:32.046Z,66.25
2023-03-29T16:56:05.572Z,66.06
2023-03-29T16:58:33.461Z,66.70
2023-03-29T17:01:10.720Z,66.83
2023-03-29T17:03:39.316Z,67.00
2023-03-29T17:06:08.821Z,66.31
2023-03-29T17:08:36.734Z,66.96
2023-03-29T17:11:04.797Z,67.47
2023-03-29T17:13:32.575Z,66.95
2023-03-29T17:16:01.347Z,67.43
2023-03-29T17:18:30.904Z,67.34
2023-03-29T17:20:59.774Z,67.65
2023-03-29T17:23:27.716Z,68.07
2023-03-29T17:25:56.578Z,67.66
2023-03-29T17:28:24.506Z,67.27
2023-03-29T17:30:52.651Z,67.44
2023-03-29T17:33:22.453Z,67.08
2023-03-29T17:35:51.932Z,67.28
2023-03-29T17:38:19.729Z,67.96
2023-03-29T17:40:53.198Z,68.46
2023-03-29T17:43:21.255Z,68.58
2023-03-29T17:45:51.601Z,68.58
2023-03-29T17:48:19.696Z,68.62
2023-03-29T17:50:47.685Z,68.13
2023-03-29T17:53:16.676Z,68.33
2023-03-29T17:55:44.350Z,68.71
2023-03-29T17:58:12.130Z,68.87
2023-03-29T18:00:39.809Z,69.53
2023-03-29T18:03:07.578Z,69.34
2023-03-29T18:05:35.547Z,69.67
2023-03-29T18:08:03.421Z,69.33
2023-03-29T18:10:32.563Z,69.47
2023-03-29T18:13:00.535Z,70.03
2023-03-29T18:15:28.304Z,70.14
2023-03-29T18:17:56.353Z,69.56
2023-03-29T18:20:23.998Z,70.22
2023-03-29T18:22:51.702Z,70.44
2023-03-29T18:25:20.119Z,70.82
2023-03-29T18:27:49.998Z,70.22
2023-03-29T18:30:17.896Z,70.84
2023-03-29T18:32:45.736Z,71.09
2023-03-29T18:35:13.439Z,71.39
2023-03-29T18:37:41.078Z,71.61
2023-03-29T18:40:10.176Z,71.41
2023-03-29T18:42:37.880Z,71.03
2023-03-29T18:45:09.300Z,71.63
2023-03-29T18:47:37.038Z,71.53
2023-03-29T18:50:05.222Z,71.75
2023-03-29T18:52:33.176Z,71.98
2023-03-29T18:55:00.888Z,72.19
2023-03-29T18:57:28.711Z,72.29
2023-03-29T18:59:56.474Z,72.71
2023-03-29T19:02:25.824Z,72.51
2023-03-29T19:04:53.533Z,72.61
2023-03-29T19:07:21.951Z,72.61
2023-03-29T19:09:49.626Z,72.63
2023-03-29T19:12:17.310Z,73.03
2023-03-29T19:14:45.025Z,73.06
2023-03-29T19:17:12.682Z,73.11
2023-03-29T19:19:41.752Z,73.25
2023-03-29T19:22:09.553Z,73.54
2023-03-29T19:24:37.223Z,74.12
2023-03-29T19:27:06.460Z,73.96
2023-03-29T19:29:34.256Z,74.62
2023-03-29T19:32:01.965Z,74.75
2023-03-29T19:34:30.464Z,74.95
2023-03-29T19:37:00.782Z,75.13
2023-03-29T19:39:29.647Z,74.60
2023-03-29T19:41:57.610Z,74.94
2023-03-29T19:44:25.509Z,75.10
2023-03-29T19:46:53.259Z,75.26
2023-03-29T19:49:21.191Z,75.58
2023-03-29T19:51:48.910Z,75.85
2023-03-29T19:54:17.994Z,76.16
2023-03-29T19:56:46.308Z,76.18
2023-03-29T19:59:15.123Z,76.24
2023-03-29T20:01:51.255Z,76.61
2023-03-29T20:04:19.279Z,76.81
2023-03-29T20:06:47.353Z,76.87
2023-03-29T20:09:15.985Z,77.71
2023-03-29T20:11:46.579Z,78.23
2023-03-29T20:14:14.713Z,78.55
2023-03-29T20:16:43.473Z,78.17
2023-03-29T20:19:13.804Z,78.42
2023-03-29T20:21:41.526Z,79.23
2023-03-29T20:24:09.637Z,79.43
2023-03-29T20:26:37.604Z,79.25
2023-03-29T20:29:07.239Z,79.22
2023-03-29T20:31:34.931Z,79.60
2023-03-29T20:34:02.611Z,79.32
2023-03-29T20:36:30.775Z,79.30
2023-03-29T20:38:59.149Z,79.31
2023-03-29T20:41:27.152Z,79.41
2023-03-29T20:43:59.808Z,79.43
2023-03-29T20:46:34.124Z,79.18
2023-03-29T20:49:02.762Z,79.45
2023-03-29T20:51:31.898Z,79.71
2023-03-29T20:54:04.410Z,80.22
2023-03-29T20:56:33.842Z,79.79
2023-03-29T20:59:02.891Z,80.17
2023-03-29T21:01:31.986Z,79.54
2023-03-29T21:03:59.778Z,79.74
2023-03-29T21:06:27.552Z,79.73
2023-03-29T21:08:55.199Z,80.54
2023-03-29T21:11:22.875Z,79.81
2023-03-29T21:13:52.867Z,80.10
2023-03-29T21:16:20.696Z,79.79
2023-03-29T21:18:49.854Z,79.95
2023-03-29T21:21:17.549Z,79.88
2023-03-29T21:23:45.257Z,80.34
2023-03-29T21:26:13.157Z,80.61
2023-03-29T21:28:42.352Z,81.01
2023-03-29T21:31:10.629Z,80.85
2023-03-29T21:33:38.285Z,81.38
2023-03-29T21:36:08.161Z,81.32
2023-03-29T21:38:35.943Z,81.61
2023-03-29T21:41:03.764Z,81.77
2023-03-29T21:43:31.529Z,81.51
2023-03-29T21:45:59.207Z,81.77
2023-03-29T21:48:27.141Z,81.76
2023-03-29T21:50:54.816Z,81.71
2023-03-29T21:53:24.508Z,81.60
2023-03-29T21:55:52.546Z,82.18
2023-03-29T21:58:20.739Z,82.13
2023-03-29T22:00:49.361Z,82.05
2023-03-29T22:03:17.483Z,82.60
2023-03-29T22:05:56.153Z,82.51
2023-03-29T22:08:26.255Z,82.82
2023-03-29T22:10:56.596Z,82.87
2023-03-29T22:13:25.250Z,83.11
2023-03-29T22:15:58.462Z,83.34
2023-03-29T22:18:27.787Z,83.74
2023-03-29T22:20:55.626Z,84.25
2023-03-29T22:23:24.808Z,84.71
2023-03-29T22:25:53.942Z,85.24
2023-03-29T22:28:21.598Z,85.28
2023-03-29T22:30:49.295Z,84.20
2023-03-29T22:33:17.133Z,84.04
2023-03-29T22:35:44.805Z,85.07
2023-03-29T22:38:12.458Z,84.56
2023-03-29T22:40:41.102Z,84.26
2023-03-29T22:43:10.158Z,83.63
2023-03-29T22:45:37.968Z,83.66
2023-03-29T22:48:05.910Z,83.67
2023-03-29T22:50:33.895Z,84.08
2023-03-29T22:53:01.566Z,84.05
2023-03-29T22:55:29.251Z,84.64
2023-03-29T22:57:56.871Z,84.68
2023-03-29T23:00:26.323Z,84.59
2023-03-29T23:02:54.057Z,84.47
2023-03-29T23:05:21.794Z,84.62
2023-03-29T23:07:49.678Z,85.25
2023-03-29T23:10:17.431Z,85.35
2023-03-29T23:12:45.050Z,85.14
2023-03-29T23:15:13.488Z,85.25
2023-03-29T23:17:42.562Z,85.65
2023-03-29T23:20:11.647Z,85.59
2023-03-29T23:22:39.673Z,85.71
2023-03-29T23:25:08.525Z,86.22
2023-03-29T23:27:36.245Z,85.84
2023-03-29T23:30:03.938Z,86.45
2023-03-29T23:32:31.649Z,86.54
2023-03-29T23:35:01.167Z,87.01
2023-03-29T23:37:28.791Z,87.77
2023-03-29T23:39:56.388Z,88.68
2023-03-29T23:42:24.053Z,89.20
2023-03-29T23:44:51.750Z,89.88
2023-03-29T23:47:19.482Z,90.16
2023-03-29T23:49:47.766Z,91.09
2023-03-29T23:52:17.374Z,92.06
2023-03-29T23:54:45.125Z,92.57
2023-03-29T23:57:12.923Z,92.94
2023-03-29T23:59:40.716Z,93.40
